createdAt,value
2022-11-23T00:01:37.380Z,3.50
2022-11-23T00:04:05.641Z,3.50
2022-11-23T00:06:32.804Z,3.50
2022-11-23T00:08:59.539Z,3.50
2022-11-23T00:11:26.724Z,3.50
2022-11-23T00:13:54.019Z,3.50
2022-11-23T00:16:25.347Z,3.50
2022-11-23T00:18:55.646Z,3.40
2022-11-23T00:21:22.890Z,3.30
2022-11-23T00:23:49.510Z,3.40
2022-11-23T00:26:17.143Z,3.40
2022-11-23T00:28:44.175Z,3.30
2022-11-23T00:31:12.125Z,3.20
2022-11-23T00:33:39.003Z,3.20
2022-11-23T00:36:07.222Z,3.30
2022-11-23T00:38:33.918Z,3.30
2022-11-23T00:41:01.303Z,3.20
2022-11-23T00:43:28.666Z,3.20
2022-11-23T00:46:13.407Z,3.30
2022-11-23T00:48:42.423Z,3.30
2022-11-23T00:51:10.362Z,3.30
2022-11-23T00:53:36.989Z,3.30
2022-11-23T00:56:04.290Z,3.30
2022-11-23T00:58:31.207Z,3.30
2022-11-23T01:01:03.409Z,3.40
2022-11-23T01:03:32.342Z,3.40
2022-11-23T01:06:03.520Z,3.40
2022-11-23T01:08:30.219Z,3.40
2022-11-23T01:11:05.455Z,3.40
2022-11-23T01:13:35.787Z,3.40
2022-11-23T01:16:02.385Z,3.40
2022-11-23T01:18:29.044Z,3.40
2022-11-23T01:20:55.635Z,3.40
2022-11-23T01:23:22.261Z,3.40
2022-11-23T01:25:50.908Z,3.50
2022-11-23T01:28:21.454Z,3.40
2022-11-23T01:30:48.044Z,3.30
2022-11-23T01:33:14.846Z,3.30
2022-11-23T01:35:41.446Z,3.20
2022-11-23T01:38:08.059Z,3.10
2022-11-23T01:40:42.178Z,3.10
2022-11-23T01:43:14.141Z,3.10
2022-11-23T01:45:41.838Z,3.10
2022-11-23T01:48:13.690Z,3.20
2022-11-23T01:50:40.852Z,3.20
2022-11-23T01:53:07.520Z,3.10
2022-11-23T01:55:34.663Z,3.10
2022-11-23T01:58:01.438Z,3.10
2022-11-23T02:00:28.190Z,3.10
2022-11-23T02:02:57.734Z,3.10
2022-11-23T02:05:27.338Z,3.20
2022-11-23T02:07:54.275Z,3.20
2022-11-23T02:10:21.415Z,3.20
2022-11-23T02:12:48.115Z,3.20
2022-11-23T02:15:14.826Z,3.30
2022-11-23T02:17:42.648Z,3.20
2022-11-23T02:20:11.219Z,3.20
2022-11-23T02:22:40.942Z,3.20
2022-11-23T02:25:15.997Z,3.20
2022-11-23T02:27:46.799Z,3.20
2022-11-23T02:30:13.898Z,3.20
2022-11-23T02:32:41.014Z,3.20
2022-11-23T02:35:09.288Z,3.20
2022-11-23T02:37:36.355Z,3.20
2022-11-23T02:40:04.981Z,3.20
2022-11-23T02:42:34.370Z,3.20
2022-11-23T02:45:07.109Z,3.20
2022-11-23T02:47:36.035Z,3.20
2022-11-23T02:50:02.872Z,3.20
2022-11-23T02:52:29.475Z,3.20
2022-11-23T02:54:56.851Z,3.20
2022-11-23T02:57:23.534Z,3.10
2022-11-23T02:59:50.174Z,3.00
2022-11-23T03:02:17.087Z,3.00
2022-11-23T03:04:43.713Z,3.00
2022-11-23T03:07:10.623Z,3.00
2022-11-23T03:09:39.030Z,3.00
2022-11-23T03:12:06.119Z,2.90
2022-11-23T03:14:32.817Z,2.80
2022-11-23T03:17:00.218Z,2.70
2022-11-23T03:19:30.638Z,2.70
2022-11-23T03:21:57.600Z,2.70
2022-11-23T03:24:24.250Z,2.60
2022-11-23T03:26:52.566Z,2.50
2022-11-23T03:29:20.335Z,2.40
2022-11-23T03:31:47.682Z,2.20
2022-11-23T03:34:16.433Z,2.20
2022-11-23T03:36:44.462Z,2.30
2022-11-23T03:39:11.440Z,2.20
2022-11-23T03:41:58.335Z,2.30
2022-11-23T03:44:30.878Z,2.40
2022-11-23T03:46:57.678Z,2.40
2022-11-23T03:49:26.268Z,2.40
2022-11-23T03:51:53.335Z,2.40
2022-11-23T03:54:19.998Z,2.50
2022-11-23T03:56:48.024Z,2.50
2022-11-23T03:59:14.755Z,2.50
2022-11-23T04:01:41.531Z,2.50
2022-11-23T04:04:13.955Z,2.50
2022-11-23T04:07:05.148Z,2.60
2022-11-23T04:09:36.200Z,2.60
2022-11-23T04:12:05.583Z,2.50
2022-11-23T04:14:34.240Z,2.50
2022-11-23T04:17:02.187Z,2.40
2022-11-23T04:19:30.134Z,2.40
2022-11-23T04:21:57.227Z,2.50
2022-11-23T04:24:24.063Z,2.60
2022-11-23T04:26:56.558Z,2.70
2022-11-23T04:29:24.102Z,2.80
2022-11-23T04:31:53.364Z,2.80
2022-11-23T04:34:21.030Z,2.90
2022-11-23T04:36:49.576Z,2.90
2022-11-23T04:39:19.213Z,2.90
2022-11-23T04:42:06.104Z,2.90
2022-11-23T04:44:33.656Z,2.90
2022-11-23T04:47:03.831Z,2.90
2022-11-23T04:49:32.646Z,2.90
2022-11-23T04:51:59.606Z,2.90
2022-11-23T04:54:32.526Z,2.90
2022-11-23T04:57:01.758Z,2.90
2022-11-23T04:59:28.907Z,2.90
2022-11-23T05:01:56.054Z,2.80
2022-11-23T05:04:41.053Z,2.80
2022-11-23T05:07:08.400Z,2.80
2022-11-23T05:09:36.022Z,2.70
2022-11-23T05:12:13.248Z,2.80
2022-11-23T05:14:40.285Z,2.80
2022-11-23T05:17:08.183Z,2.80
2022-11-23T05:19:34.989Z,2.70
2022-11-23T05:22:02.529Z,2.70
2022-11-23T05:24:32.232Z,2.70
2022-11-23T05:27:07.961Z,2.70
2022-11-23T05:29:34.900Z,2.60
2022-11-23T05:32:02.249Z,2.70
2022-11-23T05:34:28.951Z,2.70
2022-11-23T05:36:55.648Z,2.70
2022-11-23T05:39:23.649Z,2.70
2022-11-23T05:41:52.330Z,2.70
2022-11-23T05:44:29.211Z,2.70
2022-11-23T05:46:56.000Z,2.60
2022-11-23T05:49:22.943Z,2.60
2022-11-23T05:51:49.566Z,2.60
2022-11-23T05:54:17.406Z,2.60
2022-11-23T05:56:51.479Z,2.50
2022-11-23T05:59:22.884Z,2.50
2022-11-23T06:01:55.960Z,2.50
2022-11-23T06:04:27.466Z,2.50
2022-11-23T06:06:59.087Z,2.40
2022-11-23T06:09:26.794Z,2.40
2022-11-23T06:11:54.706Z,2.40
2022-11-23T06:14:21.567Z,2.30
2022-11-23T06:16:48.481Z,2.20
2022-11-23T06:19:47.517Z,2.20
2022-11-23T06:22:15.287Z,2.10
2022-11-23T06:24:50.020Z,2.10
2022-11-23T06:27:35.028Z,2.10
2022-11-23T06:30:06.075Z,2.10
2022-11-23T06:32:32.885Z,2.00
2022-11-23T06:35:01.198Z,2.00
2022-11-23T06:37:31.243Z,1.90
2022-11-23T06:39:58.027Z,1.90
2022-11-23T06:42:41.062Z,1.80
2022-11-23T06:45:17.240Z,1.70
2022-11-23T06:47:44.716Z,1.70
2022-11-23T06:50:11.364Z,1.60
2022-11-23T06:52:38.704Z,1.70
2022-11-23T06:55:05.402Z,1.60
2022-11-23T06:57:32.058Z,1.50
2022-11-23T06:59:58.751Z,1.40
2022-11-23T07:02:31.959Z,1.40
2022-11-23T07:04:58.780Z,1.40
2022-11-23T07:07:27.450Z,1.50
2022-11-23T07:10:09.920Z,1.40
2022-11-23T07:12:43.355Z,1.40
2022-11-23T07:15:10.548Z,1.40
2022-11-23T07:17:42.453Z,1.50
2022-11-23T07:20:11.038Z,1.50
2022-11-23T07:22:38.178Z,1.60
2022-11-23T07:25:05.363Z,1.60
2022-11-23T07:27:32.109Z,1.50
2022-11-23T07:30:00.556Z,1.40
2022-11-23T07:32:27.285Z,1.50
2022-11-23T07:34:54.393Z,1.40
2022-11-23T07:37:21.155Z,1.50
2022-11-23T07:40:03.516Z,1.50
2022-11-23T07:42:35.644Z,1.60
2022-11-23T07:45:04.977Z,1.60
2022-11-23T07:47:31.585Z,1.80
2022-11-23T07:49:58.260Z,1.90
2022-11-23T07:52:25.154Z,1.90
2022-11-23T07:54:51.875Z,2.00
2022-11-23T07:57:18.509Z,2.10
2022-11-23T07:59:45.506Z,2.20
2022-11-23T08:02:15.533Z,2.20
2022-11-23T08:04:42.200Z,2.30
2022-11-23T08:07:08.890Z,2.50
2022-11-23T08:09:35.649Z,2.50
2022-11-23T08:12:02.407Z,2.60
2022-11-23T08:14:29.141Z,2.60
2022-11-23T08:16:55.768Z,2.60
2022-11-23T08:19:22.389Z,2.60
2022-11-23T08:21:48.974Z,2.80
2022-11-23T08:24:15.622Z,2.80
2022-11-23T08:26:42.294Z,3.00
2022-11-23T08:29:08.919Z,3.00
2022-11-23T08:31:35.536Z,3.10
2022-11-23T08:34:03.746Z,3.20
2022-11-23T08:36:30.592Z,3.20
2022-11-23T08:38:57.233Z,3.30
2022-11-23T08:41:23.958Z,3.40
2022-11-23T08:43:51.241Z,3.50
2022-11-23T08:46:18.075Z,3.70
2022-11-23T08:48:45.100Z,4.00
2022-11-23T08:51:11.948Z,4.20
2022-11-23T08:53:38.693Z,4.30
2022-11-23T08:56:06.377Z,4.40
2022-11-23T08:58:33.065Z,4.60
2022-11-23T09:00:59.708Z,4.70
2022-11-23T09:03:26.359Z,4.80
2022-11-23T09:05:54.549Z,4.90
2022-11-23T09:08:21.265Z,4.90
2022-11-23T09:10:47.905Z,5.00
2022-11-23T09:13:14.639Z,5.00
2022-11-23T09:15:41.288Z,5.10
2022-11-23T09:18:07.923Z,5.10
2022-11-23T09:20:34.821Z,5.20
2022-11-23T09:23:01.436Z,5.20
2022-11-23T09:25:28.065Z,5.40
2022-11-23T09:27:59.363Z,5.50
2022-11-23T09:30:26.895Z,5.50
2022-11-23T09:32:55.290Z,5.60
2022-11-23T09:35:21.928Z,5.70
2022-11-23T09:37:48.522Z,5.80
2022-11-23T09:40:17.126Z,5.90
2022-11-23T09:43:05.538Z,6.00
2022-11-23T09:45:47.528Z,6.00
2022-11-23T09:48:37.142Z,6.10
2022-11-23T09:51:03.703Z,6.10
2022-11-23T09:53:34.157Z,6.20
2022-11-23T09:56:01.482Z,6.20
2022-11-23T09:58:31.337Z,6.30
2022-11-23T10:01:02.974Z,6.30
2022-11-23T10:03:32.331Z,6.40
2022-11-23T10:06:02.111Z,6.40
2022-11-23T10:08:45.754Z,6.50
2022-11-23T10:11:12.411Z,6.60
2022-11-23T10:13:44.686Z,6.60
2022-11-23T10:16:29.789Z,6.60
2022-11-23T10:18:56.362Z,6.60
2022-11-23T10:21:32.174Z,6.60
2022-11-23T10:24:22.122Z,6.70
2022-11-23T10:26:49.822Z,6.70
2022-11-23T10:29:20.103Z,6.80
2022-11-23T10:31:50.488Z,6.90
2022-11-23T10:34:39.296Z,6.90
2022-11-23T10:37:09.906Z,7.00
2022-11-23T10:39:36.512Z,7.10
2022-11-23T10:42:07.194Z,7.10
2022-11-23T10:44:36.839Z,7.20
2022-11-23T10:47:03.934Z,7.20
2022-11-23T10:49:32.923Z,7.30
2022-11-23T10:52:26.882Z,7.20
2022-11-23T10:54:56.178Z,7.10
2022-11-23T10:57:33.471Z,7.20
2022-11-23T11:00:18.280Z,7.20
2022-11-23T11:02:46.057Z,7.30
2022-11-23T11:05:12.683Z,7.40
2022-11-23T11:07:39.423Z,7.50
2022-11-23T11:10:06.399Z,7.60
2022-11-23T11:12:34.643Z,7.60
2022-11-23T11:15:15.097Z,7.60
2022-11-23T11:17:42.126Z,7.80
2022-11-23T11:20:27.602Z,7.90
2022-11-23T11:22:55.516Z,7.90
2022-11-23T11:25:30.748Z,8.00
2022-11-23T11:27:58.377Z,8.10
2022-11-23T11:30:26.867Z,8.10
2022-11-23T11:33:04.544Z,8.10
2022-11-23T11:35:33.527Z,8.20
2022-11-23T11:38:14.291Z,8.10
2022-11-23T11:40:43.780Z,8.20
2022-11-23T11:43:29.291Z,8.30
2022-11-23T11:46:28.007Z,8.40
2022-11-23T11:48:53.123Z,8.50
2022-11-23T11:51:25.843Z,8.50
2022-11-23T11:54:11.410Z,8.40
2022-11-23T11:56:39.590Z,8.50
2022-11-23T11:59:09.861Z,8.70
2022-11-23T12:01:37.978Z,8.80
2022-11-23T12:04:06.980Z,8.90
2022-11-23T12:06:39.405Z,9.00
2022-11-23T12:09:06.563Z,9.00
2022-11-23T12:11:33.185Z,9.10
2022-11-23T12:14:01.768Z,9.10
2022-11-23T12:16:39.136Z,9.00
2022-11-23T12:19:11.992Z,9.00
2022-11-23T12:21:57.510Z,9.00
2022-11-23T12:24:42.960Z,8.90
2022-11-23T12:27:20.047Z,8.90
2022-11-23T12:29:55.644Z,9.00
2022-11-23T12:32:42.511Z,9.10
2022-11-23T12:35:29.800Z,9.20
2022-11-23T12:38:11.369Z,9.40
2022-11-23T12:40:51.220Z,9.50
2022-11-23T12:43:26.603Z,9.60
2022-11-23T12:45:53.239Z,9.70
2022-11-23T12:48:32.078Z,9.70
2022-11-23T12:51:04.659Z,9.60
2022-11-23T12:53:50.226Z,9.40
2022-11-23T12:56:26.438Z,9.00
2022-11-23T12:58:53.937Z,8.90
2022-11-23T13:01:31.172Z,9.10
2022-11-23T13:03:57.863Z,9.60
2022-11-23T13:06:44.071Z,10.00
2022-11-23T13:09:24.502Z,10.40
2022-11-23T13:12:05.085Z,11.00
2022-11-23T13:14:31.940Z,12.00
2022-11-23T13:17:04.612Z,13.80
2022-11-23T13:19:42.121Z,15.40
2022-11-23T13:22:18.395Z,16.70
2022-11-23T13:24:59.996Z,16.70
2022-11-23T13:27:31.345Z,16.10
2022-11-23T13:30:01.002Z,15.30
2022-11-23T13:32:39.865Z,14.80
2022-11-23T13:35:18.736Z,15.30
2022-11-23T13:37:57.590Z,16.50
2022-11-23T13:40:34.530Z,18.20
2022-11-23T13:43:03.426Z,19.40
2022-11-23T13:45:33.866Z,20.00
2022-11-23T13:48:04.660Z,19.00
2022-11-23T13:50:31.908Z,19.40
2022-11-23T13:52:58.636Z,19.50
2022-11-23T13:55:35.362Z,20.50
2022-11-23T13:58:20.652Z,20.60
2022-11-23T14:00:49.108Z,21.20
2022-11-23T14:03:34.623Z,21.60
2022-11-23T14:06:02.467Z,21.80
2022-11-23T14:08:29.378Z,21.80
2022-11-23T14:10:57.412Z,22.20
2022-11-23T14:13:25.803Z,22.50
2022-11-23T14:15:57.577Z,21.50
2022-11-23T14:18:42.187Z,21.50
2022-11-23T14:21:11.900Z,21.20
2022-11-23T14:23:56.873Z,21.90
2022-11-23T14:26:43.004Z,22.20
2022-11-23T14:29:22.143Z,22.60
2022-11-23T14:32:07.528Z,22.20
2022-11-23T14:34:54.304Z,21.50
2022-11-23T14:37:39.773Z,20.70
2022-11-23T14:40:25.436Z,19.80
2022-11-23T14:42:53.114Z,19.00
2022-11-23T14:45:20.783Z,17.80
2022-11-23T14:47:47.468Z,17.30
2022-11-23T14:50:26.157Z,17.10
2022-11-23T14:52:54.253Z,17.00
2022-11-23T14:55:22.614Z,17.20
2022-11-23T14:57:49.738Z,17.20
2022-11-23T15:00:28.672Z,16.80
2022-11-23T15:02:56.585Z,15.10
2022-11-23T15:05:43.207Z,13.40
2022-11-23T15:08:23.990Z,12.20
2022-11-23T15:10:50.645Z,11.10
2022-11-23T15:13:21.964Z,10.30
2022-11-23T15:15:53.461Z,9.80
2022-11-23T15:18:27.008Z,9.20
2022-11-23T15:20:53.870Z,8.90
2022-11-23T15:23:22.106Z,8.50
2022-11-23T15:25:52.767Z,8.10
2022-11-23T15:28:23.545Z,7.70
2022-11-23T15:30:55.102Z,7.40
2022-11-23T15:33:25.276Z,7.20
2022-11-23T15:35:53.162Z,7.00
2022-11-23T15:38:23.656Z,6.80
2022-11-23T15:40:51.084Z,6.50
2022-11-23T15:43:19.092Z,6.40
2022-11-23T15:45:45.739Z,6.30
2022-11-23T15:48:14.860Z,6.10
2022-11-23T15:51:01.807Z,6.10
2022-11-23T15:53:29.856Z,6.00
2022-11-23T15:56:01.299Z,5.90
2022-11-23T15:58:28.439Z,5.60
2022-11-23T16:01:07.234Z,5.60
2022-11-23T16:03:39.950Z,5.30
2022-11-23T16:06:12.993Z,5.20
2022-11-23T16:08:40.839Z,4.90
2022-11-23T16:11:21.068Z,4.70
2022-11-23T16:13:47.746Z,4.50
2022-11-23T16:16:16.182Z,4.50
2022-11-23T16:18:44.437Z,4.40
2022-11-23T16:21:15.012Z,4.30
2022-11-23T16:23:44.928Z,4.30
2022-11-23T16:26:12.011Z,4.20
2022-11-23T16:28:40.340Z,4.10
2022-11-23T16:31:07.050Z,3.90
2022-11-23T16:33:34.121Z,4.00
2022-11-23T16:36:00.800Z,3.80
2022-11-23T16:38:27.435Z,3.70
2022-11-23T16:40:56.185Z,3.60
2022-11-23T16:43:23.379Z,3.70
2022-11-23T16:45:51.228Z,3.70
2022-11-23T16:48:25.080Z,3.70
2022-11-23T16:50:55.724Z,3.60
2022-11-23T16:53:22.348Z,3.60
2022-11-23T16:55:58.496Z,3.30
2022-11-23T16:58:26.428Z,3.20
2022-11-23T17:00:53.537Z,3.00
2022-11-23T17:03:20.629Z,2.90
2022-11-23T17:05:47.761Z,2.90
2022-11-23T17:08:19.827Z,2.90
2022-11-23T17:10:50.747Z,2.90
2022-11-23T17:13:26.814Z,2.90
2022-11-23T17:15:53.987Z,2.90
2022-11-23T17:18:22.197Z,2.90
2022-11-23T17:20:48.819Z,3.00
2022-11-23T17:23:15.540Z,3.00
2022-11-23T17:25:42.178Z,3.10
2022-11-23T17:28:16.613Z,3.00
2022-11-23T17:30:43.591Z,3.10
2022-11-23T17:33:10.693Z,3.20
2022-11-23T17:35:38.459Z,3.20
2022-11-23T17:38:06.065Z,3.30
2022-11-23T17:40:32.810Z,3.50
2022-11-23T17:42:59.434Z,3.50
2022-11-23T17:45:26.049Z,3.50
2022-11-23T17:47:52.659Z,3.50
2022-11-23T17:50:20.281Z,3.60
2022-11-23T17:52:47.491Z,3.60
2022-11-23T17:55:14.566Z,3.50
2022-11-23T17:57:41.475Z,3.40
2022-11-23T18:00:14.736Z,3.50
2022-11-23T18:02:41.397Z,3.60
2022-11-23T18:05:08.242Z,3.60
2022-11-23T18:07:34.957Z,3.50
2022-11-23T18:10:01.650Z,3.70
2022-11-23T18:12:28.258Z,3.60
2022-11-23T18:14:54.942Z,3.60
2022-11-23T18:17:22.354Z,3.50
2022-11-23T18:19:48.966Z,3.20
2022-11-23T18:22:15.729Z,3.20
2022-11-23T18:24:42.362Z,3.30
2022-11-23T18:27:08.985Z,3.10
2022-11-23T18:29:36.518Z,3.00
2022-11-23T18:32:03.599Z,3.10
2022-11-23T18:34:30.343Z,3.30
2022-11-23T18:36:56.930Z,3.40
2022-11-23T18:39:23.679Z,3.70
2022-11-23T18:41:50.268Z,3.90
2022-11-23T18:44:16.899Z,3.90
2022-11-23T18:46:45.683Z,4.00
2022-11-23T18:49:12.341Z,4.10
2022-11-23T18:51:38.946Z,3.90
2022-11-23T18:54:05.752Z,3.80
2022-11-23T18:56:32.425Z,3.60
2022-11-23T18:58:59.058Z,3.40
2022-11-23T19:01:25.854Z,3.30
2022-11-23T19:03:53.112Z,3.10
2022-11-23T19:06:21.203Z,2.90
2022-11-23T19:08:53.521Z,2.80
2022-11-23T19:11:21.933Z,2.60
2022-11-23T19:13:49.750Z,2.40
2022-11-23T19:16:18.333Z,2.30
2022-11-23T19:18:45.111Z,2.30
2022-11-23T19:21:15.960Z,2.20
2022-11-23T19:23:43.152Z,2.30
2022-11-23T19:26:10.103Z,2.30
2022-11-23T19:28:36.802Z,2.30
2022-11-23T19:31:13.982Z,2.30
2022-11-23T19:33:41.882Z,2.30
2022-11-23T19:36:09.974Z,2.40
2022-11-23T19:38:36.577Z,2.40
2022-11-23T19:41:03.239Z,2.40
2022-11-23T19:43:29.869Z,2.30
2022-11-23T19:45:57.386Z,2.30
2022-11-23T19:48:24.548Z,2.30
2022-11-23T19:51:10.108Z,2.30
2022-11-23T19:53:37.894Z,2.40
2022-11-23T19:56:04.541Z,2.30
2022-11-23T19:58:32.038Z,2.40
2022-11-23T20:00:59.495Z,2.40
2022-11-23T20:03:26.139Z,2.40
2022-11-23T20:05:54.011Z,2.50
2022-11-23T20:08:20.681Z,2.50
2022-11-23T20:10:47.265Z,2.60
2022-11-23T20:13:13.867Z,2.60
2022-11-23T20:15:42.122Z,2.60
2022-11-23T20:18:08.757Z,2.60
2022-11-23T20:20:39.888Z,2.60
2022-11-23T20:23:06.530Z,2.60
2022-11-23T20:25:37.194Z,2.70
2022-11-23T20:28:04.728Z,2.70
2022-11-23T20:30:33.622Z,2.80
2022-11-23T20:33:00.650Z,2.80
2022-11-23T20:35:27.295Z,2.80
2022-11-23T20:37:54.022Z,2.80
2022-11-23T20:40:20.707Z,2.90
2022-11-23T20:42:47.327Z,2.90
2022-11-23T20:45:13.953Z,2.90
2022-11-23T20:47:40.634Z,2.90
2022-11-23T20:50:07.501Z,3.00
2022-11-23T20:52:34.126Z,3.00
2022-11-23T20:55:00.771Z,3.10
2022-11-23T20:57:27.891Z,3.10
2022-11-23T20:59:54.999Z,3.10
2022-11-23T21:02:21.661Z,3.20
2022-11-23T21:04:48.606Z,3.30
2022-11-23T21:07:15.292Z,3.40
2022-11-23T21:09:41.929Z,3.50
2022-11-23T21:12:27.293Z,3.50
2022-11-23T21:14:54.529Z,3.70
2022-11-23T21:17:21.256Z,3.70
2022-11-23T21:19:47.892Z,3.80
2022-11-23T21:22:14.987Z,3.90
2022-11-23T21:24:42.029Z,3.90
2022-11-23T21:27:10.385Z,4.00
2022-11-23T21:29:37.174Z,4.00
2022-11-23T21:32:03.978Z,4.20
2022-11-23T21:34:30.977Z,4.20
2022-11-23T21:36:57.950Z,4.20
2022-11-23T21:39:24.637Z,4.30
2022-11-23T21:41:52.218Z,4.30
2022-11-23T21:44:19.548Z,4.30
2022-11-23T21:46:46.289Z,4.40
2022-11-23T21:49:13.078Z,4.30
2022-11-23T21:51:42.630Z,4.30
2022-11-23T21:54:14.047Z,4.30
2022-11-23T21:56:41.751Z,4.30
2022-11-23T21:59:08.382Z,4.40
2022-11-23T22:01:35.527Z,4.40
2022-11-23T22:04:08.770Z,4.40
2022-11-23T22:06:36.160Z,4.50
2022-11-23T22:09:04.751Z,4.50
2022-11-23T22:11:32.292Z,4.50
2022-11-23T22:13:58.891Z,4.50
2022-11-23T22:16:25.658Z,4.50
2022-11-23T22:18:55.819Z,4.50
2022-11-23T22:21:23.815Z,4.50
2022-11-23T22:23:50.508Z,4.50
2022-11-23T22:26:18.387Z,4.60
2022-11-23T22:28:47.005Z,4.60
2022-11-23T22:31:14.411Z,4.60
2022-11-23T22:33:41.407Z,4.60
2022-11-23T22:36:13.589Z,4.60
2022-11-23T22:38:40.514Z,4.60
2022-11-23T22:41:08.372Z,4.60
2022-11-23T22:43:35.162Z,4.60
2022-11-23T22:46:05.616Z,4.60
2022-11-23T22:48:35.420Z,4.60
2022-11-23T22:51:02.051Z,4.60
2022-11-23T22:53:29.629Z,4.60
2022-11-23T22:56:03.654Z,4.60
2022-11-23T22:58:33.033Z,4.60
2022-11-23T23:01:07.042Z,4.50
2022-11-23T23:03:33.921Z,4.40
2022-11-23T23:06:00.815Z,4.40
2022-11-23T23:08:28.002Z,4.30
2022-11-23T23:10:55.138Z,4.40
2022-11-23T23:13:22.179Z,4.30
2022-11-23T23:15:49.147Z,4.30
2022-11-23T23:18:16.210Z,4.30
2022-11-23T23:20:43.041Z,4.30
2022-11-23T23:23:09.653Z,4.30
2022-11-23T23:25:36.274Z,4.20
2022-11-23T23:28:03.033Z,4.20
2022-11-23T23:30:29.661Z,4.10
2022-11-23T23:32:58.087Z,4.10
2022-11-23T23:35:24.774Z,4.10
2022-11-23T23:37:51.416Z,4.10
2022-11-23T23:40:18.042Z,4.10
2022-11-23T23:42:44.630Z,4.10
2022-11-23T23:45:11.248Z,4.10
2022-11-23T23:47:37.848Z,4.10
2022-11-23T23:50:04.819Z,4.10
2022-11-23T23:52:31.432Z,4.20
2022-11-23T23:54:58.055Z,4.30
2022-11-23T23:57:24.659Z,4.30
2022-11-23T23:59:51.285Z,4.30
